Portada
METAR-TAF:

METAR-TAF

Aeropuertos :

Saint-Etienne, Francia

Aeropuerto de Saint-Étienne - Bouthéon

latitud: 45-32N, longitud: 004-18E, altitud: 404 m

Observación

El informe se hizo hace 10 minutos, a las 16:30 UTC
Viento 11 kt del sur
Temperatura 29°C
Humedad 31%
Presión 1017 hPa
Visibilidad: 8000 m

METAR: LFMH 281630Z AUTO 17011KT 8000 NSC 29/10 Q1017 NOSIG

Hora: 18:40 (16:40 UTC)

Pronóstico

El informe se hizo hace 2 horas y 40 minutos, a las 14:00 UTC
Pronóstico válido del 28 a las 15 UTC al 29 a las 15 UTC
Viento 10 kt del sur con ráfagas de 20 kt
Visibilidad 10 km o más
sin nubes por debajo de 1500 m y sin presencia de cumulonimbus.
Evolucionando progresivamente
del 28 a las 19 UTC al 28 a las 22 UTC
Viento 6 kt del sur-sureste
Evolucionando progresivamente
del 29 a las 12 UTC al 29 a las 15 UTC
Viento 12 kt del sur-suroeste con ráfagas de 22 kt

TAF: LFMH 281400Z 2815/2915 18010G20KT CAVOK BECMG 2819/2822 16006KT BECMG 2912/2915 20012G22KT

Observaciones y pronósticos meteorológicos de más de 4000 aeropuertos (mensajes METAR y TAF).

Los puntos amarillos y rojos representan las estaciones disponibles.

Ponga el ratón en el punto deseado para ver el nombre de la estación.

Haga clic para ver las observaciones y los pronósticos meteorológicos.

Para cambiar el mapa : haga clic en los botones verdes con una cruz de color negro para hacer un zoom, en el botón verde con un guión para alejar o en las flechas verdes para mapas adyacentes.


METAR-TAF: